createdAt,value
2018-01-01T00:01:03.463Z,10.90
2018-01-01T00:03:30.927Z,10.90
2018-01-01T00:05:58.487Z,10.90
2018-01-01T00:08:26.426Z,10.80
2018-01-01T00:10:53.895Z,10.80
2018-01-01T00:13:22.256Z,10.80
2018-01-01T00:15:50.098Z,10.70
2018-01-01T00:18:17.552Z,10.70
2018-01-01T00:20:46.949Z,10.70
2018-01-01T00:23:14.420Z,10.60
2018-01-01T00:25:43.094Z,10.60
2018-01-01T00:28:11.534Z,10.60
2018-01-01T00:30:38.933Z,10.60
2018-01-01T00:33:06.406Z,10.60
2018-01-01T00:35:33.852Z,10.60
2018-01-01T00:38:02.637Z,10.60
2018-01-01T00:40:30.146Z,10.60
2018-01-01T00:42:57.603Z,10.60
2018-01-01T00:45:25.181Z,10.60
2018-01-01T00:47:52.689Z,10.50
2018-01-01T00:50:21.436Z,10.50
2018-01-01T00:52:48.896Z,10.50
2018-01-01T00:55:17.255Z,10.50
2018-01-01T00:57:46.490Z,10.40
2018-01-01T01:00:13.934Z,10.40
2018-01-01T01:02:41.384Z,10.40
2018-01-01T01:05:11.154Z,10.40
2018-01-01T01:07:39.018Z,10.40
2018-01-01T01:10:07.725Z,10.30
2018-01-01T01:12:35.217Z,10.40
2018-01-01T01:15:02.677Z,10.40
2018-01-01T01:17:30.158Z,10.40
2018-01-01T01:19:58.054Z,10.40
2018-01-01T01:22:25.585Z,10.40
2018-01-01T01:24:53.035Z,10.40
2018-01-01T01:27:20.903Z,10.40
2018-01-01T01:29:50.166Z,10.40
2018-01-01T01:32:17.648Z,10.40
2018-01-01T01:34:45.919Z,10.30
2018-01-01T01:37:13.366Z,10.30
2018-01-01T01:39:40.847Z,10.20
2018-01-01T01:42:08.732Z,10.30
2018-01-01T01:44:36.578Z,10.30
2018-01-01T01:47:05.384Z,10.20
2018-01-01T01:49:33.261Z,10.20
2018-01-01T01:52:00.766Z,10.20
2018-01-01T01:54:28.219Z,10.20
2018-01-01T01:56:55.672Z,10.10
2018-01-01T01:59:23.142Z,10.10
2018-01-01T02:01:50.615Z,10.10
2018-01-01T02:04:20.046Z,10.00
2018-01-01T02:06:48.830Z,10.00
2018-01-01T02:09:16.681Z,9.90
2018-01-01T02:11:45.442Z,9.90
2018-01-01T02:14:12.903Z,9.90
2018-01-01T02:16:41.171Z,9.90
2018-01-01T02:19:08.661Z,9.80
2018-01-01T02:21:36.113Z,9.80
2018-01-01T02:24:03.580Z,9.80
2018-01-01T02:26:31.013Z,9.80
2018-01-01T02:28:58.462Z,9.80
2018-01-01T02:31:25.921Z,9.80
2018-01-01T02:33:54.287Z,9.80
2018-01-01T02:36:21.738Z,9.70
2018-01-01T02:38:49.181Z,9.80
2018-01-01T02:41:16.621Z,9.70
2018-01-01T02:43:44.961Z,9.80
2018-01-01T02:46:12.401Z,9.80
2018-01-01T02:48:39.855Z,9.70
2018-01-01T02:51:08.206Z,9.70
2018-01-01T02:53:35.664Z,9.60
2018-01-01T02:56:04.786Z,9.60
2018-01-01T02:58:32.222Z,9.50
2018-01-01T03:00:59.645Z,9.50
2018-01-01T03:03:27.489Z,9.50
2018-01-01T03:05:54.965Z,9.50
2018-01-01T03:08:22.890Z,9.50
2018-01-01T03:10:50.341Z,9.50
2018-01-01T03:13:18.657Z,9.40
2018-01-01T03:15:46.496Z,9.40
2018-01-01T03:18:13.944Z,9.40
2018-01-01T03:20:41.384Z,9.40
2018-01-01T03:23:09.714Z,9.30
2018-01-01T03:25:37.149Z,9.30
2018-01-01T03:28:04.593Z,9.40
2018-01-01T03:30:32.976Z,9.40
2018-01-01T03:33:00.425Z,9.40
2018-01-01T03:35:28.732Z,9.40
2018-01-01T03:37:56.184Z,9.40
2018-01-01T03:40:23.632Z,9.30
2018-01-01T03:42:51.076Z,9.30
2018-01-01T03:45:18.535Z,9.30
2018-01-01T03:47:45.993Z,9.30
2018-01-01T03:50:13.437Z,9.30
2018-01-01T03:52:41.777Z,9.30
2018-01-01T03:55:09.243Z,9.30
2018-01-01T03:57:36.685Z,9.30
2018-01-01T04:00:04.514Z,9.30
2018-01-01T04:02:33.904Z,9.30
2018-01-01T04:05:01.356Z,9.30
2018-01-01T04:07:28.799Z,9.20
2018-01-01T04:09:56.772Z,9.20
2018-01-01T04:12:24.172Z,9.20
2018-01-01T04:14:51.645Z,9.30
2018-01-01T04:17:19.462Z,9.20
2018-01-01T04:19:46.908Z,9.20
2018-01-01T04:22:14.381Z,9.00
2018-01-01T04:24:41.842Z,8.70
2018-01-01T04:27:09.286Z,8.50
2018-01-01T04:29:36.716Z,8.40
2018-01-01T04:32:04.175Z,8.40
2018-01-01T04:34:32.400Z,8.30
2018-01-01T04:36:59.862Z,8.20
2018-01-01T04:39:27.281Z,8.10
2018-01-01T04:41:54.735Z,8.00
2018-01-01T04:44:22.178Z,8.00
2018-01-01T04:46:50.522Z,7.90
2018-01-01T04:49:18.358Z,7.90
2018-01-01T04:51:45.810Z,7.90
2018-01-01T04:54:13.273Z,7.80
2018-01-01T04:56:40.726Z,7.70
2018-01-01T04:59:08.180Z,7.60
2018-01-01T05:01:37.590Z,7.60
2018-01-01T05:04:05.909Z,7.60
2018-01-01T05:06:33.762Z,7.60
2018-01-01T05:09:01.594Z,7.70
2018-01-01T05:11:29.039Z,7.70
2018-01-01T05:13:56.477Z,7.60
2018-01-01T05:16:23.909Z,7.60
2018-01-01T05:18:52.778Z,7.60
2018-01-01T05:21:20.224Z,7.60
2018-01-01T05:23:47.652Z,7.60
2018-01-01T05:26:15.095Z,7.60
2018-01-01T05:28:42.540Z,7.70
2018-01-01T05:31:09.960Z,7.70
2018-01-01T05:33:37.413Z,7.80
2018-01-01T05:36:04.838Z,7.80
2018-01-01T05:38:32.292Z,7.80
2018-01-01T05:40:59.730Z,7.80
2018-01-01T05:43:28.044Z,7.80
2018-01-01T05:45:55.482Z,7.80
2018-01-01T05:48:22.919Z,7.90
2018-01-01T05:50:50.378Z,7.90
2018-01-01T05:53:17.811Z,7.90
2018-01-01T05:55:45.634Z,7.90
2018-01-01T05:58:13.085Z,7.90
2018-01-01T06:00:40.532Z,7.80
2018-01-01T06:03:07.984Z,7.70
2018-01-01T06:05:35.410Z,7.60
2018-01-01T06:08:03.247Z,7.60
2018-01-01T06:10:30.686Z,7.60
2018-01-01T06:12:58.142Z,7.50
2018-01-01T06:15:26.442Z,7.40
2018-01-01T06:17:53.888Z,7.40
2018-01-01T06:20:21.328Z,7.40
2018-01-01T06:22:48.768Z,7.40
2018-01-01T06:25:16.222Z,7.30
2018-01-01T06:27:43.671Z,7.30
2018-01-01T06:30:11.125Z,7.30
2018-01-01T06:32:38.574Z,7.30
2018-01-01T06:35:06.402Z,7.20
2018-01-01T06:37:33.841Z,7.30
2018-01-01T06:40:01.288Z,7.20
2018-01-01T06:42:28.746Z,7.20
2018-01-01T06:44:57.132Z,7.20
2018-01-01T06:47:24.646Z,7.20
2018-01-01T06:49:52.084Z,7.20
2018-01-01T06:52:19.927Z,7.20
2018-01-01T06:54:47.365Z,7.20
2018-01-01T06:57:14.818Z,7.10
2018-01-01T06:59:46.880Z,7.00
2018-01-01T07:02:14.362Z,7.00
2018-01-01T07:04:41.812Z,6.90
2018-01-01T07:07:09.238Z,6.90
2018-01-01T07:09:37.657Z,6.90
2018-01-01T07:12:06.103Z,6.90
2018-01-01T07:14:33.651Z,6.90
2018-01-01T07:17:03.356Z,6.90
2018-01-01T07:19:31.000Z,6.90
2018-01-01T07:21:58.838Z,6.80
2018-01-01T07:24:26.275Z,6.80
2018-01-01T07:26:53.714Z,6.80
2018-01-01T07:29:21.178Z,6.80
2018-01-01T07:31:48.696Z,6.80
2018-01-01T07:34:16.526Z,6.80
2018-01-01T07:36:43.974Z,6.80
2018-01-01T07:39:12.908Z,6.80
2018-01-01T07:41:40.746Z,6.80
2018-01-01T07:44:08.190Z,6.80
2018-01-01T07:46:35.643Z,6.80
2018-01-01T07:49:03.094Z,6.80
2018-01-01T07:51:30.556Z,6.80
2018-01-01T07:53:57.996Z,6.90
2018-01-01T07:56:25.437Z,6.90
2018-01-01T07:58:52.890Z,6.90
2018-01-01T08:01:20.326Z,7.00
2018-01-01T08:03:48.211Z,7.00
2018-01-01T08:06:16.601Z,6.90
2018-01-01T08:08:44.052Z,7.00
2018-01-01T08:11:11.481Z,7.00
2018-01-01T08:13:41.270Z,7.00
2018-01-01T08:16:08.703Z,7.00
2018-01-01T08:18:37.014Z,7.00
2018-01-01T08:21:04.461Z,7.00
2018-01-01T08:23:31.897Z,7.00
2018-01-01T08:26:00.215Z,7.00
2018-01-01T08:28:28.065Z,7.10
2018-01-01T08:30:55.498Z,7.10
2018-01-01T08:33:23.814Z,7.10
2018-01-01T08:35:51.274Z,7.10
2018-01-01T08:38:18.690Z,7.10
2018-01-01T08:40:47.018Z,7.10
2018-01-01T08:43:14.845Z,7.10
2018-01-01T08:45:42.297Z,7.10
2018-01-01T08:48:09.737Z,7.20
2018-01-01T08:50:37.190Z,7.20
2018-01-01T08:53:04.641Z,7.20
2018-01-01T08:55:32.102Z,7.20
2018-01-01T08:58:00.477Z,7.20
2018-01-01T09:00:27.942Z,7.20
2018-01-01T09:02:55.389Z,7.20
2018-01-01T09:05:22.833Z,7.20
2018-01-01T09:07:51.141Z,7.30
2018-01-01T09:10:18.590Z,7.20
2018-01-01T09:12:46.046Z,7.30
2018-01-01T09:15:13.496Z,7.30
2018-01-01T09:17:40.954Z,7.40
2018-01-01T09:20:09.336Z,7.40
2018-01-01T09:22:36.761Z,7.40
2018-01-01T09:25:06.172Z,7.50
2018-01-01T09:27:33.614Z,7.60
2018-01-01T09:30:01.469Z,7.60
2018-01-01T09:32:28.907Z,7.60
2018-01-01T09:34:56.337Z,7.70
2018-01-01T09:37:23.769Z,7.70
2018-01-01T09:39:52.143Z,7.70
2018-01-01T09:42:19.564Z,7.70
2018-01-01T09:44:47.049Z,7.70
2018-01-01T09:47:14.445Z,7.70
2018-01-01T09:49:43.856Z,7.70
2018-01-01T09:52:11.290Z,7.60
2018-01-01T09:54:38.734Z,7.60
2018-01-01T09:57:06.166Z,7.60
2018-01-01T09:59:34.018Z,7.60
2018-01-01T10:02:02.602Z,7.60
2018-01-01T10:04:30.058Z,7.60
2018-01-01T10:06:57.485Z,7.70
2018-01-01T10:09:24.941Z,7.70
2018-01-01T10:11:52.399Z,7.60
2018-01-01T10:14:19.837Z,7.60
2018-01-01T10:16:48.265Z,7.60
2018-01-01T10:19:15.717Z,7.70
2018-01-01T10:21:43.149Z,7.70
2018-01-01T10:24:10.586Z,7.70
2018-01-01T10:26:38.040Z,7.70
2018-01-01T10:29:05.483Z,7.70
2018-01-01T10:31:33.523Z,7.80
2018-01-01T10:34:01.018Z,7.80
2018-01-01T10:36:28.679Z,7.90
2018-01-01T10:38:56.131Z,8.00
2018-01-01T10:41:23.622Z,7.90
2018-01-01T10:43:51.295Z,7.90
2018-01-01T10:46:19.398Z,7.80
2018-01-01T10:48:46.853Z,7.80
2018-01-01T10:51:14.702Z,7.90
2018-01-01T10:53:44.107Z,7.90
2018-01-01T10:56:11.582Z,7.90
2018-01-01T10:58:39.421Z,8.00
2018-01-01T11:01:06.872Z,8.00
2018-01-01T11:03:34.529Z,8.00
2018-01-01T11:06:02.862Z,8.00
2018-01-01T11:08:30.290Z,8.00
2018-01-01T11:10:57.763Z,8.00
2018-01-01T11:13:25.586Z,7.90
2018-01-01T11:15:53.036Z,7.90
2018-01-01T11:18:20.466Z,7.80
2018-01-01T11:20:47.916Z,7.80
2018-01-01T11:23:16.291Z,7.70
2018-01-01T11:25:43.746Z,7.60
2018-01-01T11:28:11.211Z,7.60
2018-01-01T11:30:38.663Z,7.60
2018-01-01T11:33:06.104Z,7.70
2018-01-01T11:35:33.971Z,7.80
2018-01-01T11:38:01.912Z,7.80
2018-01-01T11:40:29.368Z,7.80
2018-01-01T11:42:56.830Z,7.80
2018-01-01T11:45:24.285Z,7.80
2018-01-01T11:47:51.729Z,7.90
2018-01-01T11:50:20.101Z,7.90
2018-01-01T11:52:47.544Z,8.00
2018-01-01T11:55:14.997Z,8.00
2018-01-01T11:57:42.417Z,7.90
2018-01-01T12:00:10.266Z,7.90
2018-01-01T12:02:37.713Z,7.90
2018-01-01T12:05:05.168Z,7.90
2018-01-01T12:07:34.546Z,7.90
2018-01-01T12:10:01.991Z,7.90
2018-01-01T12:12:29.447Z,7.90
2018-01-01T12:14:58.864Z,7.90
2018-01-01T12:17:26.277Z,7.90
2018-01-01T12:19:54.112Z,7.90
2018-01-01T12:22:21.565Z,7.90
2018-01-01T12:24:49.035Z,8.00
2018-01-01T12:27:16.511Z,8.00
2018-01-01T12:29:43.954Z,7.90
2018-01-01T12:32:12.326Z,8.00
2018-01-01T12:34:39.765Z,8.00
2018-01-01T12:37:07.204Z,8.10
2018-01-01T12:39:34.662Z,8.10
2018-01-01T12:42:02.100Z,8.20
2018-01-01T12:44:29.529Z,8.30
2018-01-01T12:46:58.411Z,8.20
2018-01-01T12:49:25.837Z,8.30
2018-01-01T12:51:53.285Z,8.20
2018-01-01T12:54:20.743Z,8.20
2018-01-01T12:56:48.190Z,8.10
2018-01-01T12:59:15.621Z,8.10
2018-01-01T13:01:43.082Z,8.10
2018-01-01T13:04:10.536Z,8.00
2018-01-01T13:06:40.688Z,8.00
2018-01-01T13:09:08.121Z,8.10
2018-01-01T13:11:35.582Z,8.20
2018-01-01T13:14:03.022Z,8.20
2018-01-01T13:16:31.462Z,8.20
2018-01-01T13:18:58.899Z,8.20
2018-01-01T13:21:26.350Z,8.10
2018-01-01T13:23:53.794Z,8.10
2018-01-01T13:26:21.250Z,8.10
2018-01-01T13:28:48.706Z,8.10
2018-01-01T13:31:16.139Z,8.10
2018-01-01T13:33:46.188Z,8.20
2018-01-01T13:36:13.658Z,8.20
2018-01-01T13:38:42.052Z,8.30
2018-01-01T13:43:48.015Z,8.20
2018-01-01T13:46:15.508Z,8.20
2018-01-01T13:48:42.953Z,8.10
2018-01-01T13:51:10.401Z,8.10
2018-01-01T13:53:38.782Z,8.10
2018-01-01T13:56:06.250Z,8.10
2018-01-01T13:58:33.712Z,8.10
2018-01-01T14:01:01.614Z,8.10
2018-01-01T14:03:29.102Z,8.10
2018-01-01T14:05:57.447Z,8.10
2018-01-01T14:08:25.169Z,8.00
2018-01-01T14:10:53.780Z,8.00
2018-01-01T14:13:21.656Z,8.10
2018-01-01T14:15:49.509Z,8.20
2018-01-01T14:18:17.380Z,8.20
2018-01-01T14:20:45.222Z,8.10
2018-01-01T14:23:12.706Z,8.10
2018-01-01T14:25:41.560Z,8.20
2018-01-01T14:28:09.022Z,8.20
2018-01-01T14:30:36.452Z,8.10
2018-01-01T14:33:03.914Z,8.20
2018-01-01T14:35:31.398Z,8.10
2018-01-01T14:37:59.821Z,8.10
2018-01-01T14:40:27.276Z,8.00
2018-01-01T14:42:55.984Z,8.10
2018-01-01T14:45:23.540Z,8.10
2018-01-01T14:47:50.968Z,8.00
2018-01-01T14:50:20.391Z,8.00
2018-01-01T14:52:47.889Z,7.90
2018-01-01T14:55:15.321Z,7.90
2018-01-01T14:57:42.774Z,7.90
2018-01-01T15:00:10.233Z,7.90
2018-01-01T15:02:37.680Z,8.00
2018-01-01T15:05:05.164Z,8.00
2018-01-01T15:07:32.614Z,8.10
2018-01-01T15:10:00.071Z,8.10
2018-01-01T15:12:27.549Z,8.10
2018-01-01T15:14:54.982Z,8.00
2018-01-01T15:17:22.421Z,8.10
2018-01-01T15:19:49.871Z,8.10
2018-01-01T15:22:17.324Z,8.10
2018-01-01T15:24:45.477Z,8.10
2018-01-01T15:27:13.305Z,8.20
2018-01-01T15:29:40.745Z,8.20
2018-01-01T15:32:08.195Z,8.10
2018-01-01T15:34:36.738Z,8.10
2018-01-01T15:37:04.565Z,8.00
2018-01-01T15:39:32.023Z,8.00
2018-01-01T15:42:00.351Z,8.00
2018-01-01T15:44:27.789Z,8.10
2018-01-01T15:46:55.621Z,8.00
2018-01-01T15:49:23.075Z,8.00
2018-01-01T15:51:50.510Z,7.90
2018-01-01T15:54:17.964Z,7.80
2018-01-01T15:56:45.406Z,8.00
2018-01-01T15:59:12.921Z,7.90
2018-01-01T16:01:40.335Z,7.80
2018-01-01T16:04:07.790Z,7.80
2018-01-01T16:06:35.302Z,7.80
2018-01-01T16:09:02.738Z,7.80
2018-01-01T16:11:30.173Z,7.50
2018-01-01T16:13:57.619Z,7.40
2018-01-01T16:16:25.049Z,7.30
2018-01-01T16:18:52.498Z,7.30
2018-01-01T16:21:20.369Z,7.20
2018-01-01T16:23:49.138Z,7.20
2018-01-01T16:26:16.646Z,7.20
2018-01-01T16:28:44.126Z,7.50
2018-01-01T16:31:13.567Z,7.40
2018-01-01T16:33:41.429Z,7.30
2018-01-01T16:36:08.886Z,7.30
2018-01-01T16:38:37.307Z,7.20
2018-01-01T16:41:04.775Z,7.00
2018-01-01T16:43:34.219Z,7.00
2018-01-01T16:46:01.800Z,6.90
2018-01-01T16:48:29.656Z,6.80
2018-01-01T16:50:58.080Z,6.80
2018-01-01T16:53:27.421Z,6.80
2018-01-01T16:55:54.862Z,6.80
2018-01-01T16:58:22.350Z,6.80
2018-01-01T17:00:50.206Z,6.60
2018-01-01T17:03:17.658Z,6.60
2018-01-01T17:05:45.131Z,6.60
2018-01-01T17:08:13.514Z,6.70
2018-01-01T17:10:40.978Z,6.70
2018-01-01T17:13:09.594Z,6.70
2018-01-01T17:15:37.064Z,6.70
2018-01-01T17:18:04.511Z,6.70
2018-01-01T17:20:31.981Z,6.80
2018-01-01T17:22:59.443Z,6.90
2018-01-01T17:25:27.714Z,7.00
2018-01-01T17:27:55.176Z,7.00
2018-01-01T17:30:23.295Z,7.00
2018-01-01T17:32:51.658Z,6.90
2018-01-01T17:35:19.559Z,6.90
2018-01-01T17:37:47.065Z,6.90
2018-01-01T17:40:15.338Z,6.90
2018-01-01T17:42:43.690Z,7.00
2018-01-01T17:45:11.190Z,7.00
2018-01-01T17:47:38.764Z,7.00
2018-01-01T17:50:06.606Z,6.90
2018-01-01T17:52:35.840Z,6.90
2018-01-01T17:55:03.318Z,6.80
2018-01-01T17:57:31.166Z,6.70
2018-01-01T17:59:58.965Z,6.70
2018-01-01T18:02:26.446Z,6.80
2018-01-01T18:04:53.929Z,6.70
2018-01-01T18:07:21.798Z,6.80
2018-01-01T18:09:50.219Z,6.90
2018-01-01T18:12:17.703Z,7.00
2018-01-01T18:14:46.094Z,7.00
2018-01-01T18:17:15.544Z,7.10
2018-01-01T18:19:43.016Z,7.00
2018-01-01T18:22:10.467Z,7.10
2018-01-01T18:24:38.919Z,7.10
2018-01-01T18:27:06.347Z,7.10
2018-01-01T18:29:33.815Z,7.10
2018-01-01T18:32:01.295Z,7.00
2018-01-01T18:34:29.138Z,6.90
2018-01-01T18:36:57.728Z,6.90
2018-01-01T18:39:25.397Z,7.00
2018-01-01T18:41:55.196Z,7.00
2018-01-01T18:44:22.664Z,7.00
2018-01-01T18:46:50.552Z,7.10
2018-01-01T18:49:20.531Z,7.10
2018-01-01T18:51:47.998Z,7.10
2018-01-01T18:54:17.399Z,7.10
2018-01-01T18:56:46.006Z,7.10
2018-01-01T18:59:13.469Z,7.10
2018-01-01T19:01:40.898Z,7.10
2018-01-01T19:04:08.417Z,7.10
2018-01-01T19:06:36.566Z,7.10
2018-01-01T19:09:03.996Z,7.20
2018-01-01T19:11:31.473Z,7.20
2018-01-01T19:13:59.311Z,7.20
2018-01-01T19:16:26.769Z,7.20
2018-01-01T19:18:54.225Z,7.20
2018-01-01T19:21:21.674Z,7.10
2018-01-01T19:23:49.133Z,7.10
2018-01-01T19:26:16.642Z,7.10
2018-01-01T19:28:44.901Z,7.20
2018-01-01T19:31:12.359Z,7.10
2018-01-01T19:33:39.842Z,7.10
2018-01-01T19:36:07.511Z,7.20
2018-01-01T19:38:34.946Z,7.20
2018-01-01T19:41:03.318Z,7.20
2018-01-01T19:43:30.765Z,7.20
2018-01-01T19:45:58.229Z,7.20
2018-01-01T19:48:26.593Z,7.20
2018-01-01T19:50:54.463Z,7.20
2018-01-01T19:53:22.308Z,7.20
2018-01-01T19:55:49.753Z,7.20
2018-01-01T19:58:17.225Z,7.20
2018-01-01T20:00:45.086Z,7.20
2018-01-01T20:03:12.546Z,7.20
2018-01-01T20:05:40.016Z,7.20
2018-01-01T20:08:07.447Z,7.20
2018-01-01T20:10:35.607Z,7.20
2018-01-01T20:13:09.946Z,7.20
2018-01-01T20:15:37.378Z,7.20
2018-01-01T20:18:04.850Z,7.20
2018-01-01T20:20:32.298Z,7.20
2018-01-01T20:23:00.719Z,7.30
2018-01-01T20:25:28.596Z,7.20
2018-01-01T20:27:56.951Z,7.20
2018-01-01T20:30:25.146Z,7.10
2018-01-01T20:32:53.033Z,6.90
2018-01-01T20:35:20.458Z,6.90
2018-01-01T20:37:48.387Z,6.80
2018-01-01T20:40:16.733Z,6.80
2018-01-01T20:42:45.398Z,6.60
2018-01-01T20:45:13.267Z,6.50
2018-01-01T20:47:42.057Z,6.50
2018-01-01T20:50:11.307Z,6.50
2018-01-01T20:52:38.749Z,6.60
2018-01-01T20:55:06.225Z,6.50
2018-01-01T20:57:33.692Z,6.50
2018-01-01T21:00:01.156Z,6.40
2018-01-01T21:02:28.610Z,6.50
2018-01-01T21:04:56.799Z,6.40
2018-01-01T21:07:24.654Z,6.40
2018-01-01T21:09:52.200Z,6.40
2018-01-01T21:12:20.132Z,6.40
2018-01-01T21:14:48.072Z,6.40
2018-01-01T21:17:15.947Z,6.40
2018-01-01T21:19:45.348Z,6.40
2018-01-01T21:22:13.222Z,6.40
2018-01-01T21:24:40.694Z,6.40
2018-01-01T21:27:08.189Z,6.40
2018-01-01T21:29:35.644Z,6.40
2018-01-01T21:32:04.319Z,6.40
2018-01-01T21:34:32.386Z,6.40
2018-01-01T21:37:02.092Z,6.40
2018-01-01T21:39:29.549Z,6.40
2018-01-01T21:41:56.992Z,6.40
2018-01-01T21:44:26.070Z,6.40
2018-01-01T21:46:53.519Z,6.40
2018-01-01T21:49:21.391Z,6.40
2018-01-01T21:51:49.861Z,6.40
2018-01-01T21:54:18.652Z,6.40
2018-01-01T21:56:46.114Z,6.40
2018-01-01T21:59:14.004Z,6.30
2018-01-01T22:01:41.478Z,6.30
2018-01-01T22:04:08.933Z,6.30
2018-01-01T22:06:36.409Z,6.40
2018-01-01T22:09:03.898Z,6.40
2018-01-01T22:11:31.734Z,6.40
2018-01-01T22:13:59.198Z,6.40
2018-01-01T22:16:27.533Z,6.40
2018-01-01T22:18:55.772Z,6.30
2018-01-01T22:21:24.733Z,6.30
2018-01-01T22:23:53.096Z,6.30
2018-01-01T22:26:20.558Z,6.30
2018-01-01T22:28:48.027Z,6.30
2018-01-01T22:31:15.482Z,6.30
2018-01-01T22:33:42.934Z,6.30
2018-01-01T22:36:11.150Z,6.40
2018-01-01T22:38:39.227Z,6.40
2018-01-01T22:41:08.061Z,6.30
2018-01-01T22:43:35.930Z,6.30
2018-01-01T22:46:03.399Z,6.30
2018-01-01T22:48:31.669Z,6.30
2018-01-01T22:50:59.682Z,6.30
2018-01-01T22:53:27.544Z,6.30
2018-01-01T22:55:54.996Z,6.30
2018-01-01T22:58:22.878Z,6.30
2018-01-01T23:00:51.184Z,6.30
2018-01-01T23:03:19.236Z,6.40
2018-01-01T23:05:46.757Z,6.40
2018-01-01T23:08:14.190Z,6.40
2018-01-01T23:10:41.650Z,6.40
2018-01-01T23:13:09.955Z,6.40
2018-01-01T23:15:37.471Z,6.50
2018-01-01T23:18:05.352Z,6.50
2018-01-01T23:20:32.835Z,6.50
2018-01-01T23:23:00.304Z,6.60
2018-01-01T23:25:27.764Z,6.60
2018-01-01T23:27:55.629Z,6.60
2018-01-01T23:30:23.733Z,6.50
2018-01-01T23:32:52.328Z,6.50
2018-01-01T23:35:19.927Z,6.60
2018-01-01T23:37:47.405Z,6.60
2018-01-01T23:40:15.282Z,6.70
2018-01-01T23:42:43.130Z,6.70
2018-01-01T23:45:11.070Z,6.70
2018-01-01T23:47:39.424Z,6.70
2018-01-01T23:50:06.885Z,6.70
2018-01-01T23:52:35.332Z,6.70
2018-01-01T23:55:03.168Z,6.60
2018-01-01T23:57:31.646Z,6.60
2018-01-01T23:59:59.105Z,6.60
